createdAt,value
2017-10-10T00:00:07.735Z,0
2017-10-10T00:01:08.359Z,0
2017-10-10T00:02:08.358Z,0
2017-10-10T00:03:08.020Z,0
2017-10-10T00:04:08.042Z,0
2017-10-10T00:05:08.226Z,0
2017-10-10T00:06:07.692Z,0
2017-10-10T00:07:08.026Z,0
2017-10-10T00:08:08.013Z,0
2017-10-10T00:09:08.125Z,0
2017-10-10T00:10:08.118Z,0
2017-10-10T00:11:08.341Z,0
2017-10-10T00:12:07.686Z,0
2017-10-10T00:13:07.715Z,0
2017-10-10T00:14:07.691Z,0
2017-10-10T00:15:08.237Z,0
2017-10-10T00:16:08.036Z,0
2017-10-10T00:17:08.300Z,0
2017-10-10T00:18:07.984Z,0
2017-10-10T00:19:07.974Z,0
2017-10-10T00:20:07.980Z,0
2017-10-10T00:21:07.975Z,0
2017-10-10T00:22:07.641Z,0
2017-10-10T00:23:08.306Z,0
2017-10-10T00:24:08.296Z,0
2017-10-10T00:25:08.243Z,0
2017-10-10T00:26:08.274Z,0
2017-10-10T00:27:08.292Z,0
2017-10-10T00:28:07.637Z,0
2017-10-10T00:29:07.981Z,0
2017-10-10T00:30:08.089Z,0
2017-10-10T00:31:08.401Z,0
2017-10-10T00:32:08.290Z,0
2017-10-10T00:33:07.934Z,0
2017-10-10T00:34:08.262Z,0
2017-10-10T00:35:08.026Z,0
2017-10-10T00:36:07.933Z,0
2017-10-10T00:37:08.246Z,0
2017-10-10T00:38:07.930Z,0
2017-10-10T00:39:08.241Z,0
2017-10-10T00:40:07.691Z,0
2017-10-10T00:41:07.952Z,0
2017-10-10T00:42:08.244Z,0
2017-10-10T00:43:07.921Z,0
2017-10-10T00:44:08.232Z,0
2017-10-10T00:45:08.038Z,0
2017-10-10T00:46:07.634Z,0
2017-10-10T00:47:07.898Z,0
2017-10-10T00:48:07.897Z,0
2017-10-10T00:49:07.575Z,0
2017-10-10T00:50:08.422Z,0
2017-10-10T00:51:07.893Z,0
2017-10-10T00:52:07.890Z,0
2017-10-10T00:53:08.208Z,0
2017-10-10T00:54:07.903Z,0
2017-10-10T00:55:08.109Z,0
2017-10-10T00:56:07.232Z,0
2017-10-10T00:57:08.195Z,0
2017-10-10T00:58:07.872Z,0
2017-10-10T00:59:07.551Z,0
2017-10-10T01:00:08.362Z,0
2017-10-10T01:01:12.066Z,0
2017-10-10T01:02:08.188Z,0
2017-10-10T01:03:07.873Z,0
2017-10-10T01:04:08.180Z,0
2017-10-10T01:05:07.207Z,0
2017-10-10T01:06:07.525Z,0
2017-10-10T01:07:07.526Z,0
2017-10-10T01:08:08.160Z,0
2017-10-10T01:09:07.515Z,0
2017-10-10T01:10:08.381Z,0
2017-10-10T01:11:07.836Z,0
2017-10-10T01:12:07.852Z,0
2017-10-10T01:13:08.154Z,0
2017-10-10T01:14:08.151Z,0
2017-10-10T01:15:08.360Z,0
2017-10-10T01:16:08.142Z,0
2017-10-10T01:17:07.820Z,0
2017-10-10T01:18:08.149Z,0
2017-10-10T01:19:07.826Z,0
2017-10-10T01:20:07.921Z,0
2017-10-10T01:21:07.800Z,0
2017-10-10T01:22:07.501Z,0
2017-10-10T01:23:08.127Z,0
2017-10-10T01:24:08.130Z,0
2017-10-10T01:25:07.892Z,0
2017-10-10T01:26:08.123Z,0
2017-10-10T01:27:07.462Z,0
2017-10-10T01:28:07.795Z,0
2017-10-10T01:29:07.135Z,0
2017-10-10T01:30:08.220Z,0
2017-10-10T01:31:07.774Z,0
2017-10-10T01:32:08.103Z,0
2017-10-10T01:33:07.775Z,0
2017-10-10T01:34:07.770Z,0
2017-10-10T01:35:07.792Z,0
2017-10-10T01:36:07.761Z,0
2017-10-10T01:37:08.096Z,0
2017-10-10T01:38:08.082Z,0
2017-10-10T01:39:08.087Z,0
2017-10-10T01:40:07.764Z,0
2017-10-10T01:41:07.760Z,0
2017-10-10T01:42:07.097Z,0
2017-10-10T01:43:08.073Z,0
2017-10-10T01:44:07.411Z,0
2017-10-10T01:45:07.828Z,0
2017-10-10T01:46:07.728Z,0
2017-10-10T01:47:11.245Z,0
2017-10-10T01:48:07.729Z,0
2017-10-10T01:49:08.065Z,0
2017-10-10T01:50:07.406Z,0
2017-10-10T01:51:07.720Z,0
2017-10-10T01:52:07.707Z,0
2017-10-10T01:53:07.710Z,0
2017-10-10T01:54:08.023Z,0
2017-10-10T01:55:08.147Z,0
2017-10-10T01:56:07.067Z,0
2017-10-10T01:57:07.685Z,0
2017-10-10T01:58:07.361Z,0
2017-10-10T01:59:07.037Z,0
2017-10-10T02:00:08.122Z,0
2017-10-10T02:01:07.387Z,0
2017-10-10T02:02:11.200Z,0
2017-10-10T02:03:07.353Z,0
2017-10-10T02:04:08.022Z,0
2017-10-10T02:05:07.764Z,0
2017-10-10T02:06:07.662Z,0
2017-10-10T02:07:07.648Z,0
2017-10-10T02:08:07.654Z,0
2017-10-10T02:09:07.334Z,0
2017-10-10T02:10:07.665Z,0
2017-10-10T02:11:07.322Z,0
2017-10-10T02:12:07.631Z,0
2017-10-10T02:13:07.951Z,0
2017-10-10T02:14:07.947Z,0
2017-10-10T02:15:07.635Z,0
2017-10-10T02:16:07.306Z,0
2017-10-10T02:17:07.313Z,0
2017-10-10T02:18:06.980Z,0
2017-10-10T02:19:07.631Z,0
2017-10-10T02:20:08.256Z,0
2017-10-10T02:21:07.049Z,0
2017-10-10T02:22:07.930Z,0
2017-10-10T02:23:07.941Z,0
2017-10-10T02:24:07.916Z,0
2017-10-10T02:25:08.146Z,0
2017-10-10T02:26:07.919Z,0
2017-10-10T02:27:07.938Z,0
2017-10-10T02:28:06.934Z,0
2017-10-10T02:29:07.901Z,0
2017-10-10T02:30:07.917Z,0
2017-10-10T02:31:07.898Z,0
2017-10-10T02:32:07.583Z,0
2017-10-10T02:33:07.900Z,0
2017-10-10T02:34:07.237Z,0
2017-10-10T02:35:08.076Z,0
2017-10-10T02:36:07.877Z,0
2017-10-10T02:37:07.884Z,0
2017-10-10T02:38:07.547Z,0
2017-10-10T02:39:07.223Z,0
2017-10-10T02:40:07.944Z,0
2017-10-10T02:41:07.543Z,0
2017-10-10T02:42:07.878Z,0
2017-10-10T02:43:07.524Z,0
2017-10-10T02:44:07.517Z,0
2017-10-10T02:45:07.544Z,0
2017-10-10T02:46:07.598Z,0
2017-10-10T02:47:07.198Z,0
2017-10-10T02:48:07.842Z,0
2017-10-10T02:49:07.509Z,0
2017-10-10T02:50:07.504Z,0
2017-10-10T02:51:07.500Z,0
2017-10-10T02:52:07.823Z,0
2017-10-10T02:53:07.173Z,0
2017-10-10T02:54:07.809Z,0
2017-10-10T02:55:07.510Z,0
2017-10-10T02:56:07.515Z,0
2017-10-10T02:57:07.197Z,0
2017-10-10T02:58:07.886Z,0
2017-10-10T02:59:07.806Z,0
2017-10-10T03:00:07.147Z,0
2017-10-10T03:01:07.483Z,0
2017-10-10T03:02:07.470Z,0
2017-10-10T03:03:07.968Z,0
2017-10-10T03:04:07.778Z,0
2017-10-10T03:05:07.912Z,0
2017-10-10T03:06:07.770Z,0
2017-10-10T03:07:07.135Z,0
2017-10-10T03:08:07.451Z,0
2017-10-10T03:09:07.435Z,0
2017-10-10T03:10:07.438Z,0
2017-10-10T03:11:07.119Z,0
2017-10-10T03:12:07.425Z,0
2017-10-10T03:13:07.435Z,0
2017-10-10T03:14:07.430Z,0
2017-10-10T03:15:07.835Z,0
2017-10-10T03:16:07.442Z,0
2017-10-10T03:17:07.103Z,0
2017-10-10T03:18:08.050Z,0
2017-10-10T03:19:07.734Z,0
2017-10-10T03:20:07.400Z,0
2017-10-10T03:21:07.123Z,0
2017-10-10T03:22:07.403Z,0
2017-10-10T03:23:07.131Z,0
2017-10-10T03:24:07.064Z,0
2017-10-10T03:25:07.393Z,0
2017-10-10T03:26:07.697Z,0
2017-10-10T03:27:07.699Z,0
2017-10-10T03:28:07.140Z,0
2017-10-10T03:29:07.054Z,0
2017-10-10T03:30:07.382Z,0
2017-10-10T03:31:07.381Z,0
2017-10-10T03:32:07.395Z,0
2017-10-10T03:33:08.779Z,0
2017-10-10T03:34:07.030Z,0
2017-10-10T03:35:06.707Z,0
2017-10-10T03:36:07.023Z,0
2017-10-10T03:37:07.030Z,0
2017-10-10T03:38:07.671Z,0
2017-10-10T03:39:07.017Z,0
2017-10-10T03:40:07.379Z,0
2017-10-10T03:41:07.013Z,0
2017-10-10T03:42:07.659Z,0
2017-10-10T03:43:07.009Z,0
2017-10-10T03:44:07.647Z,0
2017-10-10T03:45:07.316Z,0
2017-10-10T03:46:07.821Z,0
2017-10-10T03:47:06.827Z,0
2017-10-10T03:48:06.984Z,0
2017-10-10T03:49:07.303Z,0
2017-10-10T03:50:07.786Z,0
2017-10-10T03:51:07.301Z,0
2017-10-10T03:52:07.621Z,0
2017-10-10T03:53:06.968Z,0
2017-10-10T03:54:07.297Z,0
2017-10-10T03:55:07.281Z,0
2017-10-10T03:56:07.609Z,0
2017-10-10T03:57:07.608Z,0
2017-10-10T03:58:06.954Z,0
2017-10-10T03:59:07.016Z,0
2017-10-10T04:00:07.006Z,0
2017-10-10T04:01:07.595Z,0
2017-10-10T04:02:07.265Z,0
2017-10-10T04:03:07.517Z,0
2017-10-10T04:04:07.588Z,0
2017-10-10T04:05:07.311Z,0
2017-10-10T04:06:07.264Z,0
2017-10-10T04:07:07.256Z,0
2017-10-10T04:08:07.568Z,0
2017-10-10T04:09:06.916Z,0
2017-10-10T04:10:07.235Z,0
2017-10-10T04:11:07.566Z,0
2017-10-10T04:12:07.250Z,0
2017-10-10T04:13:06.918Z,0
2017-10-10T04:14:07.540Z,0
2017-10-10T04:15:07.225Z,0
2017-10-10T04:16:07.536Z,0
2017-10-10T04:17:06.891Z,0
2017-10-10T04:18:07.726Z,0
2017-10-10T04:19:06.882Z,0
2017-10-10T04:20:07.567Z,0
2017-10-10T04:21:07.205Z,0
2017-10-10T04:22:07.530Z,0
2017-10-10T04:23:07.195Z,0
2017-10-10T04:24:07.507Z,0
2017-10-10T04:25:07.216Z,0
2017-10-10T04:26:07.511Z,0
2017-10-10T04:27:07.175Z,0
2017-10-10T04:28:07.505Z,0
2017-10-10T04:29:07.173Z,0
2017-10-10T04:30:07.167Z,0
2017-10-10T04:31:07.499Z,0
2017-10-10T04:32:06.837Z,0
2017-10-10T04:33:07.727Z,0
2017-10-10T04:34:07.172Z,0
2017-10-10T04:35:07.150Z,0
2017-10-10T04:36:07.160Z,0
2017-10-10T04:37:07.158Z,0
2017-10-10T04:38:07.486Z,0
2017-10-10T04:39:07.139Z,0
2017-10-10T04:40:07.477Z,0
2017-10-10T04:41:06.838Z,0
2017-10-10T04:42:07.473Z,0
2017-10-10T04:43:06.821Z,0
2017-10-10T04:44:07.125Z,0
2017-10-10T04:45:07.440Z,0
2017-10-10T04:46:07.121Z,0
2017-10-10T04:47:07.113Z,0
2017-10-10T04:48:11.125Z,0
2017-10-10T04:49:07.128Z,0
2017-10-10T04:50:06.789Z,0
2017-10-10T04:51:07.106Z,0
2017-10-10T04:52:06.786Z,0
2017-10-10T04:53:07.097Z,0
2017-10-10T04:54:06.774Z,0
2017-10-10T04:55:06.762Z,0
2017-10-10T04:56:07.082Z,0
2017-10-10T04:57:07.397Z,0
2017-10-10T04:58:07.419Z,0
2017-10-10T04:59:06.761Z,0
2017-10-10T05:00:07.396Z,0
2017-10-10T05:01:07.395Z,0
2017-10-10T05:02:06.736Z,0
2017-10-10T05:03:08.354Z,0
2017-10-10T05:04:07.104Z,0
2017-10-10T05:05:07.077Z,0
2017-10-10T05:06:07.058Z,0
2017-10-10T05:07:06.741Z,0
2017-10-10T05:08:07.078Z,4
2017-10-10T05:09:06.743Z,4
2017-10-10T05:10:06.717Z,4
2017-10-10T05:11:07.362Z,0
2017-10-10T05:12:07.359Z,4
2017-10-10T05:13:07.032Z,4
2017-10-10T05:14:07.027Z,0
2017-10-10T05:15:07.380Z,4
2017-10-10T05:16:07.026Z,4
2017-10-10T05:17:07.334Z,4
2017-10-10T05:18:07.020Z,4
2017-10-10T05:19:09.186Z,4
2017-10-10T05:20:07.014Z,8
2017-10-10T05:21:07.013Z,8
2017-10-10T05:22:07.327Z,12
2017-10-10T05:23:07.323Z,12
2017-10-10T05:24:07.018Z,12
2017-10-10T05:25:07.324Z,16
2017-10-10T05:26:07.350Z,12
2017-10-10T05:27:07.306Z,20
2017-10-10T05:28:07.306Z,24
2017-10-10T05:29:06.994Z,28
2017-10-10T05:30:07.372Z,32
2017-10-10T05:31:07.310Z,36
2017-10-10T05:32:07.310Z,40
2017-10-10T05:33:06.980Z,44
2017-10-10T05:34:08.828Z,52
2017-10-10T05:35:06.969Z,56
2017-10-10T05:36:07.301Z,68
2017-10-10T05:37:06.663Z,80
2017-10-10T05:38:06.970Z,88
2017-10-10T05:39:06.633Z,96
2017-10-10T05:40:07.290Z,104
2017-10-10T05:41:06.950Z,120
2017-10-10T05:42:06.626Z,136
2017-10-10T05:43:06.948Z,164
2017-10-10T05:44:07.268Z,192
2017-10-10T05:45:06.937Z,212
2017-10-10T05:46:06.621Z,236
2017-10-10T05:47:06.935Z,248
2017-10-10T05:48:06.609Z,256
2017-10-10T05:49:06.929Z,268
2017-10-10T05:50:06.289Z,280
2017-10-10T05:51:07.254Z,304
2017-10-10T05:52:06.623Z,324
2017-10-10T05:53:06.600Z,340
2017-10-10T05:54:06.598Z,364
2017-10-10T05:55:06.917Z,396
2017-10-10T05:56:07.236Z,436
2017-10-10T05:57:06.589Z,464
2017-10-10T05:58:07.256Z,504
2017-10-10T05:59:06.911Z,544
2017-10-10T06:00:06.912Z,572
2017-10-10T06:01:06.906Z,596
2017-10-10T06:02:07.237Z,624
2017-10-10T06:03:06.571Z,648
2017-10-10T06:04:06.576Z,676
2017-10-10T06:05:11.814Z,704
2017-10-10T06:06:06.899Z,740
2017-10-10T06:07:07.202Z,780
2017-10-10T06:08:06.898Z,812
2017-10-10T06:09:06.883Z,844
2017-10-10T06:10:07.203Z,868
2017-10-10T06:11:07.204Z,888
2017-10-10T06:12:06.890Z,896
2017-10-10T06:13:07.206Z,896
2017-10-10T06:14:06.887Z,884
2017-10-10T06:15:07.214Z,856
2017-10-10T06:16:06.902Z,836
2017-10-10T06:17:07.196Z,816
2017-10-10T06:18:07.197Z,808
2017-10-10T06:19:06.866Z,796
2017-10-10T06:20:08.537Z,784
2017-10-10T06:21:07.172Z,768
2017-10-10T06:22:06.862Z,760
2017-10-10T06:23:06.525Z,776
2017-10-10T06:24:06.549Z,804
2017-10-10T06:25:07.176Z,848
2017-10-10T06:26:07.168Z,900
2017-10-10T06:27:07.166Z,944
2017-10-10T06:28:06.837Z,976
2017-10-10T06:29:07.173Z,1012
2017-10-10T06:30:06.838Z,1048
2017-10-10T06:31:06.506Z,1096
2017-10-10T06:32:06.184Z,1144
2017-10-10T06:33:06.509Z,1184
2017-10-10T06:34:07.145Z,1216
2017-10-10T06:35:09.379Z,1240
2017-10-10T06:36:06.499Z,1260
2017-10-10T06:37:06.828Z,1276
2017-10-10T06:38:07.139Z,1288
2017-10-10T06:39:06.808Z,1308
2017-10-10T06:40:06.828Z,1344
2017-10-10T06:41:06.480Z,1388
2017-10-10T06:42:06.829Z,1440
2017-10-10T06:43:07.128Z,1492
2017-10-10T06:44:07.143Z,1536
2017-10-10T06:45:06.790Z,1584
2017-10-10T06:46:06.788Z,1620
2017-10-10T06:47:07.111Z,1636
2017-10-10T06:48:06.815Z,1644
2017-10-10T06:49:06.141Z,1660
2017-10-10T06:50:07.101Z,1696
2017-10-10T06:51:08.760Z,1740
2017-10-10T06:52:07.094Z,1788
2017-10-10T06:53:07.116Z,1844
2017-10-10T06:54:06.792Z,1904
2017-10-10T06:55:06.799Z,1956
2017-10-10T06:56:06.457Z,1984
2017-10-10T06:57:07.094Z,2000
2017-10-10T06:58:06.471Z,2000
2017-10-10T06:59:07.086Z,1992
2017-10-10T07:00:07.088Z,1992
2017-10-10T07:01:06.119Z,1984
2017-10-10T07:02:07.089Z,1984
2017-10-10T07:03:06.124Z,1976
2017-10-10T07:04:06.112Z,1968
2017-10-10T07:05:07.087Z,1956
2017-10-10T07:06:12.103Z,1948
2017-10-10T07:07:07.091Z,1952
2017-10-10T07:08:06.431Z,1968
2017-10-10T07:09:06.422Z,2004
2017-10-10T07:10:06.745Z,2052
2017-10-10T07:11:06.751Z,2092
2017-10-10T07:12:07.067Z,2108
2017-10-10T07:13:07.061Z,2116
2017-10-10T07:14:06.733Z,2116
2017-10-10T07:15:07.057Z,2100
2017-10-10T07:16:06.425Z,2076
2017-10-10T07:17:06.737Z,2064
2017-10-10T07:18:06.412Z,2084
2017-10-10T07:19:06.734Z,2112
2017-10-10T07:20:06.411Z,2140
2017-10-10T07:21:07.045Z,2176
2017-10-10T07:22:06.715Z,2208
2017-10-10T07:23:06.397Z,2248
2017-10-10T07:24:07.033Z,2280
2017-10-10T07:25:06.074Z,2300
2017-10-10T07:26:07.036Z,2308
2017-10-10T07:27:06.068Z,2288
2017-10-10T07:28:06.067Z,2244
2017-10-10T07:29:07.043Z,2188
2017-10-10T07:30:06.718Z,2128
2017-10-10T07:31:06.709Z,2056
2017-10-10T07:32:06.723Z,1976
2017-10-10T07:33:06.692Z,1920
2017-10-10T07:34:06.710Z,1888
2017-10-10T07:35:07.013Z,1896
2017-10-10T07:36:07.745Z,1924
2017-10-10T07:37:07.010Z,1980
2017-10-10T07:38:06.706Z,2032
2017-10-10T07:39:07.013Z,2080
2017-10-10T07:40:06.683Z,2136
2017-10-10T07:41:06.675Z,2188
2017-10-10T07:42:06.671Z,2268
2017-10-10T07:43:06.024Z,2368
2017-10-10T07:44:06.997Z,2484
2017-10-10T07:45:06.679Z,2580
2017-10-10T07:46:06.680Z,2644
2017-10-10T07:47:06.998Z,2656
2017-10-10T07:48:06.351Z,2616
2017-10-10T07:49:07.009Z,2548
2017-10-10T07:50:06.992Z,2500
2017-10-10T07:51:07.013Z,2496
2017-10-10T07:52:06.328Z,2516
2017-10-10T07:53:06.000Z,2548
2017-10-10T07:54:06.650Z,2560
2017-10-10T07:55:06.646Z,2572
2017-10-10T07:56:06.637Z,2588
2017-10-10T07:57:06.326Z,2632
2017-10-10T07:58:06.324Z,2704
2017-10-10T07:59:06.641Z,2804
2017-10-10T08:00:06.654Z,2940
2017-10-10T08:01:06.798Z,3092
2017-10-10T08:02:06.959Z,3232
2017-10-10T08:03:06.957Z,3332
2017-10-10T08:04:06.960Z,3380
2017-10-10T08:05:06.946Z,3412
2017-10-10T08:06:06.304Z,3408
2017-10-10T08:07:06.627Z,3436
2017-10-10T08:08:06.962Z,3508
2017-10-10T08:09:06.945Z,3576
2017-10-10T08:10:06.969Z,3632
2017-10-10T08:11:06.966Z,3652
2017-10-10T08:12:06.627Z,3664
2017-10-10T08:13:06.966Z,3704
2017-10-10T08:14:06.968Z,3804
2017-10-10T08:15:06.605Z,3884
2017-10-10T08:16:06.274Z,3956
2017-10-10T08:17:06.953Z,4060
2017-10-10T08:18:06.927Z,4168
2017-10-10T08:19:06.929Z,4248
2017-10-10T08:20:06.922Z,4276
2017-10-10T08:21:06.621Z,4264
2017-10-10T08:22:11.129Z,4260
2017-10-10T08:23:06.623Z,4296
2017-10-10T08:24:06.268Z,4392
2017-10-10T08:25:06.620Z,4420
2017-10-10T08:26:06.285Z,4444
2017-10-10T08:27:06.589Z,4532
2017-10-10T08:28:06.904Z,4704
2017-10-10T08:29:06.609Z,4936
2017-10-10T08:30:06.913Z,5240
2017-10-10T08:31:06.585Z,5616
2017-10-10T08:32:06.277Z,6076
2017-10-10T08:33:06.259Z,6380
2017-10-10T08:34:06.596Z,6360
2017-10-10T08:35:06.584Z,6156
2017-10-10T08:36:06.254Z,6016
2017-10-10T08:37:10.287Z,5948
2017-10-10T08:38:06.579Z,6088
2017-10-10T08:39:06.583Z,6352
2017-10-10T08:40:06.897Z,6576
2017-10-10T08:41:05.952Z,6764
2017-10-10T08:42:06.578Z,6936
2017-10-10T08:43:06.923Z,7152
2017-10-10T08:44:06.571Z,7456
2017-10-10T08:45:06.256Z,7544
2017-10-10T08:46:06.901Z,7456
2017-10-10T08:47:06.903Z,7292
2017-10-10T08:48:06.570Z,7308
2017-10-10T08:49:06.572Z,7492
2017-10-10T08:50:06.904Z,7708
2017-10-10T08:51:06.896Z,7720
2017-10-10T08:52:06.574Z,7376
2017-10-10T08:53:06.245Z,6860
2017-10-10T08:54:06.245Z,6320
2017-10-10T08:55:06.570Z,5900
2017-10-10T08:56:06.244Z,5588
2017-10-10T08:57:06.582Z,5376
2017-10-10T08:58:06.895Z,5272
2017-10-10T08:59:06.248Z,5256
2017-10-10T09:00:06.930Z,5244
2017-10-10T09:01:06.251Z,5168
2017-10-10T09:02:06.895Z,4912
2017-10-10T09:03:06.243Z,4672
2017-10-10T09:04:06.890Z,4500
2017-10-10T09:05:06.571Z,4396
2017-10-10T09:06:06.582Z,4288
2017-10-10T09:07:06.919Z,4268
2017-10-10T09:08:07.994Z,4384
2017-10-10T09:09:06.257Z,4564
2017-10-10T09:10:06.246Z,4688
2017-10-10T09:11:06.250Z,4772
2017-10-10T09:12:06.250Z,4772
2017-10-10T09:13:06.569Z,4792
2017-10-10T09:14:07.163Z,4856
2017-10-10T09:15:06.624Z,4940
2017-10-10T09:16:06.570Z,5032
2017-10-10T09:17:06.565Z,5068
2017-10-10T09:18:06.968Z,5016
2017-10-10T09:19:06.580Z,4924
2017-10-10T09:20:06.270Z,4764
2017-10-10T09:21:06.910Z,4592
2017-10-10T09:22:06.889Z,4368
2017-10-10T09:23:06.876Z,4148
2017-10-10T09:24:06.587Z,3968
2017-10-10T09:25:06.307Z,3772
2017-10-10T09:26:06.277Z,3588
2017-10-10T09:27:06.263Z,3488
2017-10-10T09:28:06.891Z,3440
2017-10-10T09:29:06.892Z,3464
2017-10-10T09:30:06.890Z,3608
2017-10-10T09:31:06.572Z,3772
2017-10-10T09:32:06.910Z,3932
2017-10-10T09:33:06.481Z,4036
2017-10-10T09:34:06.911Z,4144
2017-10-10T09:35:06.572Z,4236
2017-10-10T09:36:06.577Z,4292
2017-10-10T09:37:06.246Z,4360
2017-10-10T09:38:07.673Z,4428
2017-10-10T09:39:06.253Z,4576
2017-10-10T09:40:06.922Z,4756
2017-10-10T09:41:06.266Z,4920
2017-10-10T09:42:06.897Z,5040
2017-10-10T09:43:06.578Z,5112
2017-10-10T09:44:06.900Z,5076
2017-10-10T09:45:06.929Z,5012
2017-10-10T09:46:06.581Z,4984
2017-10-10T09:47:06.247Z,5032
2017-10-10T09:48:06.581Z,5092
2017-10-10T09:49:06.896Z,5056
2017-10-10T09:50:06.564Z,4976
2017-10-10T09:51:06.910Z,4988
2017-10-10T09:52:06.250Z,5080
2017-10-10T09:53:07.709Z,5316
2017-10-10T09:54:06.902Z,5640
2017-10-10T09:55:06.893Z,5848
2017-10-10T09:56:06.245Z,5856
2017-10-10T09:57:06.251Z,5756
2017-10-10T09:58:06.586Z,5656
2017-10-10T09:59:06.905Z,5588
2017-10-10T10:00:06.572Z,5548
2017-10-10T10:01:06.583Z,5488
2017-10-10T10:02:06.579Z,5444
2017-10-10T10:03:06.897Z,5464
2017-10-10T10:04:06.889Z,5532
2017-10-10T10:05:06.569Z,5628
2017-10-10T10:06:06.580Z,5752
2017-10-10T10:07:06.569Z,5956
2017-10-10T10:08:08.619Z,6232
2017-10-10T10:09:06.573Z,6528
2017-10-10T10:10:06.575Z,6760
2017-10-10T10:11:06.889Z,6936
2017-10-10T10:12:06.909Z,7036
2017-10-10T10:13:06.275Z,7140
2017-10-10T10:14:06.726Z,7344
2017-10-10T10:15:06.573Z,7680
2017-10-10T10:16:06.589Z,8192
2017-10-10T10:17:06.568Z,8716
2017-10-10T10:18:06.893Z,9224
2017-10-10T10:19:06.583Z,9504
2017-10-10T10:20:06.579Z,9948
2017-10-10T10:21:06.574Z,10124
2017-10-10T10:22:06.566Z,12096
2017-10-10T10:23:06.584Z,9828
2017-10-10T10:24:07.432Z,9952
2017-10-10T10:25:06.250Z,10180
2017-10-10T10:26:06.577Z,10344
2017-10-10T10:27:06.904Z,10568
2017-10-10T10:28:06.583Z,10640
2017-10-10T10:29:06.901Z,10192
2017-10-10T10:30:06.903Z,9564
2017-10-10T10:31:06.604Z,9036
2017-10-10T10:32:06.253Z,8672
2017-10-10T10:33:06.587Z,8496
2017-10-10T10:34:06.908Z,7856
2017-10-10T10:35:06.911Z,6740
2017-10-10T10:36:06.590Z,6212
2017-10-10T10:37:06.594Z,6352
2017-10-10T10:38:06.598Z,6448
2017-10-10T10:39:07.324Z,6392
2017-10-10T10:40:06.607Z,6120
2017-10-10T10:41:06.911Z,5792
2017-10-10T10:42:06.596Z,5628
2017-10-10T10:43:06.608Z,5644
2017-10-10T10:44:06.924Z,5644
2017-10-10T10:45:06.606Z,5380
2017-10-10T10:46:06.642Z,4808
2017-10-10T10:47:06.923Z,4316
2017-10-10T10:48:06.603Z,4184
2017-10-10T10:49:06.607Z,4344
2017-10-10T10:50:06.625Z,4612
2017-10-10T10:51:06.625Z,4660
2017-10-10T10:52:06.283Z,4520
2017-10-10T10:53:06.616Z,4252
2017-10-10T10:54:06.953Z,4000
2017-10-10T10:55:06.298Z,3672
2017-10-10T10:56:06.613Z,3556
2017-10-10T10:57:06.618Z,3436
2017-10-10T10:58:06.953Z,3328
2017-10-10T10:59:06.618Z,3268
2017-10-10T11:00:06.619Z,3156
2017-10-10T11:01:06.296Z,3128
2017-10-10T11:02:06.625Z,3132
2017-10-10T11:03:06.630Z,3064
2017-10-10T11:04:06.967Z,2904
2017-10-10T11:05:06.967Z,2992
2017-10-10T11:06:06.306Z,3188
2017-10-10T11:07:06.622Z,3244
2017-10-10T11:08:06.957Z,3548
2017-10-10T11:09:08.069Z,4332
2017-10-10T11:10:06.947Z,4848
2017-10-10T11:11:06.624Z,4876
2017-10-10T11:12:06.947Z,4964
2017-10-10T11:13:06.633Z,5148
2017-10-10T11:14:06.631Z,5396
2017-10-10T11:15:06.962Z,5344
2017-10-10T11:16:06.641Z,4928
2017-10-10T11:17:06.010Z,4712
2017-10-10T11:18:06.634Z,4472
2017-10-10T11:19:06.636Z,4136
2017-10-10T11:20:06.320Z,3892
2017-10-10T11:21:06.639Z,3732
2017-10-10T11:22:07.034Z,3396
2017-10-10T11:23:06.976Z,2940
2017-10-10T11:24:06.975Z,2548
2017-10-10T11:25:06.637Z,2352
2017-10-10T11:26:06.659Z,2280
2017-10-10T11:27:06.318Z,2284
2017-10-10T11:28:06.979Z,2372
2017-10-10T11:29:06.643Z,2504
2017-10-10T11:30:06.337Z,2644
2017-10-10T11:31:06.642Z,2704
2017-10-10T11:32:06.648Z,2652
2017-10-10T11:33:06.643Z,2700
2017-10-10T11:34:06.979Z,2912
2017-10-10T11:35:06.650Z,3124
2017-10-10T11:36:06.990Z,3228
2017-10-10T11:37:06.980Z,3208
2017-10-10T11:38:06.989Z,3044
2017-10-10T11:39:06.648Z,2812
2017-10-10T11:40:06.993Z,2604
2017-10-10T11:41:06.326Z,2576
2017-10-10T11:42:06.971Z,2668
2017-10-10T11:43:06.980Z,2828
2017-10-10T11:44:06.014Z,2960
2017-10-10T11:45:06.776Z,3144
2017-10-10T11:46:06.669Z,3392
2017-10-10T11:47:06.975Z,3476
2017-10-10T11:48:06.997Z,3652
2017-10-10T11:49:06.657Z,3820
2017-10-10T11:50:06.981Z,3692
2017-10-10T11:51:06.681Z,3464
2017-10-10T11:52:06.331Z,3548
2017-10-10T11:53:06.681Z,3840
2017-10-10T11:54:06.661Z,3856
2017-10-10T11:55:09.074Z,3500
2017-10-10T11:56:06.332Z,3080
2017-10-10T11:57:06.989Z,2760
2017-10-10T11:58:06.670Z,2516
2017-10-10T11:59:07.062Z,2324
2017-10-10T12:00:06.664Z,2292
2017-10-10T12:01:07.060Z,2408
2017-10-10T12:02:06.987Z,2656
2017-10-10T12:03:07.026Z,2912
2017-10-10T12:04:06.361Z,3080
2017-10-10T12:05:07.007Z,3108
2017-10-10T12:06:06.680Z,3112
2017-10-10T12:07:06.679Z,3232
2017-10-10T12:08:06.662Z,3324
2017-10-10T12:09:06.671Z,3376
2017-10-10T12:10:09.199Z,3384
2017-10-10T12:11:06.745Z,3328
2017-10-10T12:12:06.669Z,3288
2017-10-10T12:13:07.015Z,3260
2017-10-10T12:14:06.399Z,3236
2017-10-10T12:15:07.015Z,3232
2017-10-10T12:16:06.403Z,3240
2017-10-10T12:17:06.674Z,3252
2017-10-10T12:18:06.826Z,3340
2017-10-10T12:19:06.355Z,3452
2017-10-10T12:20:06.998Z,3596
2017-10-10T12:21:06.995Z,3828
2017-10-10T12:22:06.682Z,4000
2017-10-10T12:23:06.701Z,4080
2017-10-10T12:24:06.348Z,4104
2017-10-10T12:25:06.722Z,4080
2017-10-10T12:26:06.672Z,4224
2017-10-10T12:27:07.035Z,4532
2017-10-10T12:28:06.385Z,4756
2017-10-10T12:29:06.997Z,4708
2017-10-10T12:30:06.672Z,4664
2017-10-10T12:31:06.992Z,4576
2017-10-10T12:32:07.003Z,4312
2017-10-10T12:33:06.357Z,4044
2017-10-10T12:34:06.368Z,3956
2017-10-10T12:35:06.677Z,3992
2017-10-10T12:36:06.912Z,4284
2017-10-10T12:37:06.681Z,4736
2017-10-10T12:38:06.693Z,4976
2017-10-10T12:39:06.993Z,4992
2017-10-10T12:40:10.296Z,4820
2017-10-10T12:41:06.360Z,4544
2017-10-10T12:42:06.680Z,4304
2017-10-10T12:43:07.005Z,4156
2017-10-10T12:44:06.991Z,4028
2017-10-10T12:45:07.014Z,3756
2017-10-10T12:46:06.693Z,3460
2017-10-10T12:47:07.013Z,3276
2017-10-10T12:48:07.027Z,3200
2017-10-10T12:49:06.365Z,3248
2017-10-10T12:50:06.363Z,3436
2017-10-10T12:51:06.691Z,3660
2017-10-10T12:52:06.675Z,3832
2017-10-10T12:53:06.367Z,3972
2017-10-10T12:54:06.701Z,4064
2017-10-10T12:55:06.680Z,4124
2017-10-10T12:56:06.677Z,4196
2017-10-10T12:57:06.998Z,4280
2017-10-10T12:58:06.998Z,4340
2017-10-10T12:59:07.014Z,4316
2017-10-10T13:00:06.382Z,4260
2017-10-10T13:01:06.748Z,4192
2017-10-10T13:02:06.735Z,4140
2017-10-10T13:03:06.440Z,4120
2017-10-10T13:04:07.005Z,4104
2017-10-10T13:05:07.037Z,4124
2017-10-10T13:06:07.027Z,4076
2017-10-10T13:07:07.018Z,3956
2017-10-10T13:08:07.022Z,3948
2017-10-10T13:09:06.423Z,3924
2017-10-10T13:10:07.018Z,3824
2017-10-10T13:11:09.660Z,3724
2017-10-10T13:12:07.029Z,3632
2017-10-10T13:13:07.016Z,3504
2017-10-10T13:14:06.375Z,3432
2017-10-10T13:15:07.056Z,3532
2017-10-10T13:16:06.090Z,3784
2017-10-10T13:17:06.378Z,4120
2017-10-10T13:18:06.708Z,4544
2017-10-10T13:19:06.703Z,4856
2017-10-10T13:20:06.698Z,4908
2017-10-10T13:21:07.012Z,4760
2017-10-10T13:22:06.694Z,4432
2017-10-10T13:23:06.378Z,3936
2017-10-10T13:24:06.709Z,3472
2017-10-10T13:25:07.026Z,3268
2017-10-10T13:26:07.015Z,3180
2017-10-10T13:27:06.704Z,3160
2017-10-10T13:28:06.381Z,3160
2017-10-10T13:29:06.695Z,3116
2017-10-10T13:30:07.035Z,3060
2017-10-10T13:31:07.016Z,3052
2017-10-10T13:32:06.408Z,3132
2017-10-10T13:33:06.701Z,3312
2017-10-10T13:34:07.086Z,3496
2017-10-10T13:35:07.357Z,3604
2017-10-10T13:36:06.904Z,3660
2017-10-10T13:37:07.236Z,3692
2017-10-10T13:38:06.777Z,3644
2017-10-10T13:39:06.750Z,3456
2017-10-10T13:40:06.563Z,3228
2017-10-10T13:41:07.705Z,2984
2017-10-10T13:42:06.974Z,2704
2017-10-10T13:43:06.916Z,2528
2017-10-10T13:44:06.488Z,2500
2017-10-10T13:45:06.711Z,2576
2017-10-10T13:46:06.371Z,2828
2017-10-10T13:47:06.371Z,3232
2017-10-10T13:48:06.370Z,3508
2017-10-10T13:49:06.383Z,3624
2017-10-10T13:50:06.612Z,3660
2017-10-10T13:51:06.700Z,3600
2017-10-10T13:52:06.380Z,3408
2017-10-10T13:53:06.705Z,3388